Impacts TAF Board INFO
FOR SITUATIONAL AWARENESS. NOT TO BE USED FOR FLIGHT PLANNING PURPOSES.
IDs:

KPIT - Pittsburgh Intl, PA, US

Issued at 0229 UTC 22 Jan 2018
Updated at 0434 UTC 22 Jan 2018
Potential Impact None Slight Moderate High
Time0351Z 22/05Z 22/06Z 22/07Z 22/08Z 22/09Z 22/10Z 22/11Z 22/12Z 22/13Z 22/14Z 22/15Z 22/16Z 22/17Z>>
Type OBS PRVL PRVL
  [TEMP]  
PRVL
  [TEMP]  
PRVL
  [TEMP]  
PRVL PRVL PRVL PRVL PRVL PRVL PRVL PRVL PRVL
VIS 10 6 3 3 3 3 3 3 3 >6 >6 >6 >6 >6
CIG 23 22 15
  [10]  
15
  [10]  
15
  [10]  
15 15 20 20 25 25 25 -- --
Cover OVC OVC OVC
  [BKN]  
OVC
  [BKN]  
OVC
  [BKN]  
OVC OVC OVC OVC BKN BKN BKN SCT SCT
FltCat MVFR MVFR MVFR
  [MVFR]  
MVFR
  [MVFR]  
MVFR
  [MVFR]  
MVFR MVFR MVFR MVFR MVFR MVFR MVFR VFR VFR
WX -- BR BR
  [--]  
BR
  [--]  
BR
  [--]  
BR BR BR BR -- -- -- -- --
WDir VRB 190 200
[200]
200
[200]
200
[200]
200 200 180 180 170 170 170 170 170
WSpd 0 6 5
  [5]  
5
  [5]  
5
  [5]  
5 5 5 5 5 5 5 5 5
WGst -- -- --
  [--]  
--
  [--]  
--
  [--]  
-- -- -- -- -- -- -- -- --

Raw TAF
KPIT 220229Z 2202/2306 19006KT 6SM BR OVC022
  FM220600 20005KT 3SM BR SCT010 OVC015
  TEMPO 2206/2209 BKN010
  FM221100 18005KT 3SM BR OVC020
  FM221300 17005KT P6SM BKN025
  FM221600 17005KT P6SM SCT050


Raw METAR
KPIT 220351Z 00000KT 10SM SCT013 OVC023 08/07 A3007 RMK AO2 SLP196 T00780072
KPIT 220323Z 18003KT 7SM OVC013 07/07 A3008 RMK AO2 T00720072
KPIT 220251Z 17003KT 6SM BR OVC017 07/07 A3008 RMK AO2 SLP200 60001 T00670067 53001
KPIT 220151Z 18003KT 6SM BR MIFG OVC021 07/07 A3008 RMK AO2 DZE19 SLP199 P0000 T00670067

METAR Board
Radar Display
Forecast Discussion

FOR SITUATIONAL AWARENESS. NOT TO BE USED FOR FLIGHT PLANNING PURPOSES.